Aérodrome :
LOGIN :

S'inscrire | Disclaimer

   EN    FR    IT 

 










Légende :    VFR   VFR Marginal   IFR   IFR Intensif   IFR Très Intensif
Visi : 
Plafond : 
>= 8 km
>= 3000ft
5 à 8 km
1000 à 3000 ft
1500m à 5 km
500 à 1000 ft
800 à 1500m
200 à 500 ft
< 800m
< 200 ft
Symboles :   Orages  Brouillard  Fortes neiges  Fortes précipitations  Vent > 20 kt
SIGMETs :   Divers  Orages  Givrage  Turbulence  Onde Orograph.  Cendres Volcan.







- Altitude de l'aérodrome : 1708 ft
- Code IATA : SJJ


LQSA - Sarajevo

METARs EXPIRÉS :
  • 241430Z 27003KT 190V330 9999 FEW050 31/15 Q1017 NOSIG
  • 241400Z VRB01KT 9999 FEW050 31/18 Q1017 NOSIG
  • 241330Z VRB02KT 9999 FEW050 30/15 Q1017 NOSIG
  • 241300Z 29003KT 240V360 9999 FEW050 29/17 Q1018 NOSIG
  • 241230Z VRB03KT 9999 FEW050 29/18 Q1018 NOSIG
  • 241200Z 24003KT 180V320 9999 FEW050 28/17 Q1018 NOSIG

TAF TAF LQSA
Valide du 23 à 18h jusqu'au 24 à 18h UTC


231700Z 2318/2418 VRB02KT 9999 SCT050 TX32/2414Z TN15/2403Z
PROB30
TEMPO 2318/2321 30020KT 5000 TSRA SCT030CB SCT060
PROB30
TEMPO 2414/2418 VRB12KT 5000 TSRA SCT030CB SCT065
Pas de NOTAMs connus pour ce terrain.



MET'MAP, la Météo Aéronautique d'un coup d'oeil ! - Copyright ORBIFLY Décembre 2007 - Disclaimer

ORBIFLY MET'MAP TEAM :

Programmation & Développement : Alexandra Zaïnal
Conception & Développement : Baudouin d'Aumeries
Co-Programmation & Développement : Marc-Olivier Méhu
Soutien technique & logistique : Manuel Goepfert

Contact : metmap@orbifly.com




SOURCES & CREDITS :

   NOAA